Time;durP1;ratioP1;P1;durP2;ratioP2;P2;SDS_P1;SDS_P2;PMS_P1;PMS_P2;Temp;Humidity;BMP_temperature;BMP_pressure;BME280_temperature;BME280_humidity;BME280_pressure;Samples;Min_cycle;Max_cycle;Signal;HPM_P1;HPM_P2
2021/04/27 00:01:02;;;;;;;2.73;2.53;;;8.50;51.90;;;;;;5110524;28;20267;-52
2021/04/27 00:03:27;;;;;;;2.50;2.20;;;8.70;50.80;;;;;;5110465;28;20203;-52
2021/04/27 00:05:53;;;;;;;4.97;2.50;;;8.50;49.50;;;;;;5110997;28;20195;-52
2021/04/27 00:08:19;;;;;;;2.60;2.40;;;8.90;48.80;;;;;;5111220;28;20699;-52
2021/04/27 00:10:45;;;;;;;3.43;2.60;;;8.90;48.40;;;;;;5109790;28;20192;-52
2021/04/27 00:13:12;;;;;;;4.82;3.00;;;8.90;47.60;;;;;;5103201;28;20211;-52
2021/04/27 00:15:38;;;;;;;3.65;2.70;;;9.00;47.30;;;;;;5111084;28;20614;-52
2021/04/27 00:18:03;;;;;;;3.70;3.27;;;9.00;47.10;;;;;;5109524;28;20179;-52
2021/04/27 00:20:29;;;;;;;3.20;2.90;;;9.00;47.00;;;;;;5109867;28;20190;-52
2021/04/27 00:22:55;;;;;;;6.53;2.83;;;9.10;47.00;;;;;;5109864;28;20457;-51
2021/04/27 00:25:22;;;;;;;3.88;2.45;;;9.10;47.00;;;;;;5110302;28;20176;-52
2021/04/27 00:27:50;;;;;;;3.90;2.65;;;9.20;47.30;;;;;;5109416;28;20287;-52
2021/04/27 00:30:18;;;;;;;3.00;2.70;;;8.90;47.30;;;;;;5109032;28;20184;-52
2021/04/27 00:32:44;;;;;;;3.47;2.50;;;9.20;47.60;;;;;;5109785;28;20192;-52
2021/04/27 00:35:10;;;;;;;5.00;2.30;;;9.20;48.30;;;;;;5109482;28;20180;-52
2021/04/27 00:37:36;;;;;;;2.80;2.60;;;9.40;48.10;;;;;;5109503;28;20203;-52
2021/04/27 00:40:04;;;;;;;3.00;2.40;;;9.00;47.80;;;;;;5108745;28;20543;-51
2021/04/27 00:42:34;;;;;;;5.25;3.60;;;9.20;48.40;;;;;;5109535;28;20214;-52
2021/04/27 00:45:01;;;;;;;3.13;2.70;;;9.10;48.80;;;;;;5109061;28;20183;-52
2021/04/27 00:47:27;;;;;;;2.70;2.50;;;9.20;48.90;;;;;;5109314;28;20188;-52
2021/04/27 00:49:55;;;;;;;4.15;2.70;;;9.00;48.80;;;;;;5104766;28;20241;-52
2021/04/27 00:52:21;;;;;;;3.53;2.78;;;8.80;49.30;;;;;;5105626;28;20211;-52
2021/04/27 00:54:47;;;;;;;5.03;2.67;;;9.00;50.20;;;;;;5108544;28;20184;-51
2021/04/27 00:57:13;;;;;;;3.10;2.80;;;8.80;50.40;;;;;;5101502;28;20211;-52
2021/04/27 00:59:39;;;;;;;2.53;2.33;;;8.80;50.50;;;;;;5110639;28;20437;-51
2021/04/27 01:02:05;;;;;;;2.60;2.40;;;8.80;50.70;;;;;;5100169;28;20204;-52
2021/04/27 01:04:32;;;;;;;3.17;2.88;;;8.90;50.90;;;;;;5108243;28;20187;-52
2021/04/27 01:06:58;;;;;;;3.72;2.80;;;8.70;50.60;;;;;;5108716;28;20198;-51
2021/04/27 01:09:29;;;;;;;4.83;2.50;;;8.80;50.00;;;;;;5108356;28;20180;-51
2021/04/27 01:12:02;;;;;;;3.42;3.13;;;8.90;50.00;;;;;;5101658;28;20203;-52
2021/04/27 01:14:35;;;;;;;3.90;2.45;;;8.70;49.70;;;;;;5108669;28;20184;-50
2021/04/27 01:17:05;;;;;;;3.33;2.50;;;8.20;49.30;;;;;;5106510;28;20203;-52
2021/04/27 01:19:43;;;;;;;2.67;2.47;;;8.80;50.10;;;;;;5108155;28;20693;-51
2021/04/27 01:22:12;;;;;;;3.03;2.50;;;8.50;50.10;;;;;;5108943;28;20577;-52
2021/04/27 01:24:51;;;;;;;2.90;2.10;;;8.40;50.10;;;;;;5108212;28;20665;-50
2021/04/27 01:27:18;;;;;;;2.70;2.50;;;8.70;50.60;;;;;;5108059;28;20218;-52
2021/04/27 01:29:44;;;;;;;3.58;2.85;;;8.30;51.40;;;;;;5108614;28;20671;-51
2021/04/27 01:32:11;;;;;;;4.80;2.50;;;8.50;51.10;;;;;;5108559;28;20222;-52
2021/04/27 01:34:39;;;;;;;3.00;2.25;;;8.60;51.50;;;;;;5108214;28;20187;-52
2021/04/27 01:37:10;;;;;;;3.40;2.80;;;8.30;52.50;;;;;;5107122;28;20203;-51
2021/04/27 01:39:37;;;;;;;2.55;2.35;;;8.20;53.70;;;;;;5107447;28;20316;-51
2021/04/27 01:42:05;;;;;;;3.72;2.58;;;8.10;53.20;;;;;;5108158;28;20200;-52
2021/04/27 01:44:33;;;;;;;2.80;2.60;;;8.10;52.80;;;;;;5108402;28;20873;-50
2021/04/27 01:47:00;;;;;;;3.17;2.88;;;7.90;52.60;;;;;;5107954;28;20211;-51
2021/04/27 01:49:26;;;;;;;4.00;2.83;;;8.20;53.40;;;;;;5108248;28;20690;-52
2021/04/27 01:51:53;;;;;;;3.55;2.55;;;7.90;53.70;;;;;;5107683;28;20265;-51
2021/04/27 01:54:23;;;;;;;6.38;2.70;;;8.20;52.90;;;;;;5107896;28;20210;-50
2021/04/27 01:56:49;;;;;;;3.65;2.42;;;7.80;52.90;;;;;;5109323;28;20207;-51
2021/04/27 01:59:15;;;;;;;3.20;2.40;;;8.10;53.50;;;;;;5107614;28;20686;-51
2021/04/27 02:01:41;;;;;;;5.13;2.80;;;8.00;53.20;;;;;;5108320;28;22059;-51
2021/04/27 02:04:06;;;;;;;3.70;2.63;;;7.90;53.70;;;;;;5108464;28;20175;-52
2021/04/27 02:06:32;;;;;;;2.93;2.63;;;7.90;53.30;;;;;;5108257;28;20190;-51
2021/04/27 02:09:10;;;;;;;2.93;2.73;;;7.90;53.50;;;;;;5107763;28;20715;-50
2021/04/27 02:11:39;;;;;;;3.45;3.05;;;8.10;53.70;;;;;;5107752;28;20212;-49
2021/04/27 02:14:06;;;;;;;3.90;2.78;;;8.00;54.00;;;;;;5103781;28;20179;-50
2021/04/27 02:16:58;;;;;;;3.83;2.80;;;7.80;54.00;;;;;;5106852;28;20218;-50
2021/04/27 02:19:27;;;;;;;3.10;2.50;;;7.70;54.40;;;;;;5103118;28;20658;-51
2021/04/27 02:22:01;;;;;;;3.10;2.80;;;7.70;54.40;;;;;;5107350;28;20689;-51
2021/04/27 02:24:28;;;;;;;5.60;3.20;;;7.70;54.40;;;;;;5107574;28;20252;-51
2021/04/27 02:26:54;;;;;;;4.03;3.00;;;7.70;54.10;;;;;;5108607;28;20687;-50
2021/04/27 02:29:21;;;;;;;4.75;2.25;;;7.90;54.20;;;;;;5107387;28;20262;-51
2021/04/27 02:31:47;;;;;;;3.90;2.80;;;7.50;54.50;;;;;;5107487;28;20686;-51
2021/04/27 02:34:14;;;;;;;2.77;2.57;;;7.70;55.40;;;;;;5107537;28;20175;-50
2021/04/27 02:36:41;;;;;;;3.72;2.60;;;7.50;55.20;;;;;;5106893;28;20405;-50
2021/04/27 02:39:10;;;;;;;2.97;2.50;;;7.50;55.70;;;;;;5107434;28;20191;-51
2021/04/27 02:41:38;;;;;;;2.85;2.65;;;7.70;56.20;;;;;;5103941;28;20271;-51
2021/04/27 02:44:06;;;;;;;2.85;2.65;;;7.70;55.70;;;;;;5107653;28;20186;-52
2021/04/27 02:46:32;;;;;;;4.15;2.75;;;7.50;55.60;;;;;;5107340;28;20535;-51
2021/04/27 02:48:58;;;;;;;5.90;2.88;;;7.50;55.90;;;;;;5107687;28;20199;-51
2021/04/27 02:51:24;;;;;;;3.20;2.33;;;7.60;55.90;;;;;;5106669;28;20187;-52
2021/04/27 02:53:50;;;;;;;3.67;2.90;;;7.70;55.80;;;;;;5107348;28;20184;-51
2021/04/27 02:56:15;;;;;;;4.10;3.03;;;7.50;55.70;;;;;;5106978;28;20318;-51
2021/04/27 02:58:41;;;;;;;4.90;3.10;;;7.40;56.00;;;;;;5109856;28;20529;-51
2021/04/27 03:01:07;;;;;;;2.65;2.45;;;7.70;55.90;;;;;;5107148;28;20657;-51
2021/04/27 03:03:33;;;;;;;3.07;2.77;;;7.60;55.80;;;;;;5107410;28;20199;-51
2021/04/27 03:05:59;;;;;;;3.60;2.90;;;7.40;55.60;;;;;;5107249;28;20191;-50
2021/04/27 03:08:25;;;;;;;3.05;2.55;;;7.60;56.30;;;;;;5106652;28;20188;-51
2021/04/27 03:10:52;;;;;;;3.23;2.93;;;7.50;56.20;;;;;;5106033;28;20750;-51
2021/04/27 03:13:18;;;;;;;3.08;2.40;;;7.40;56.10;;;;;;5098279;28;20218;-52
2021/04/27 03:15:44;;;;;;;4.25;3.20;;;7.30;56.10;;;;;;5098499;28;20345;-51
2021/04/27 03:18:10;;;;;;;3.77;2.80;;;7.40;56.30;;;;;;5101884;28;20271;-51
2021/04/27 03:20:35;;;;;;;2.83;2.53;;;7.40;56.40;;;;;;5107216;28;20183;-52
2021/04/27 03:23:01;;;;;;;3.20;2.90;;;6.90;56.70;;;;;;5110520;28;20952;-50
2021/04/27 03:25:27;;;;;;;4.90;2.87;;;7.20;57.40;;;;;;5108816;28;20192;-52
2021/04/27 03:27:53;;;;;;;4.40;2.85;;;7.10;57.40;;;;;;5110887;28;20215;-52
2021/04/27 03:30:18;;;;;;;5.23;2.67;;;7.20;57.40;;;;;;5110534;28;20244;-51
2021/04/27 03:32:44;;;;;;;3.70;3.10;;;7.10;57.00;;;;;;5110683;28;20249;-50
2021/04/27 03:35:13;;;;;;;3.03;2.73;;;7.20;57.60;;;;;;5110494;28;20212;-50
2021/04/27 03:37:39;;;;;;;2.80;2.50;;;6.90;58.10;;;;;;5110783;28;20550;-52
2021/04/27 03:40:06;;;;;;;3.20;2.72;;;7.40;58.80;;;;;;5110382;28;20638;-52
2021/04/27 03:42:32;;;;;;;3.08;2.25;;;7.20;58.90;;;;;;5110464;28;20200;-52
2021/04/27 03:44:58;;;;;;;3.00;2.70;;;7.10;58.20;;;;;;5111787;28;20179;-52
2021/04/27 03:47:23;;;;;;;5.00;2.83;;;7.30;57.80;;;;;;5110522;28;20449;-51
2021/04/27 03:49:49;;;;;;;8.60;4.00;;;7.00;58.40;;;;;;5108009;28;20557;-52
2021/04/27 03:52:15;;;;;;;3.40;3.07;;;6.90;58.80;;;;;;5106440;28;20221;-52
2021/04/27 03:54:40;;;;;;;8.47;3.20;;;7.00;59.00;;;;;;5106314;28;20699;-51
2021/04/27 03:57:06;;;;;;;3.80;3.20;;;6.80;59.20;;;;;;5108370;28;20256;-52
2021/04/27 03:59:32;;;;;;;3.10;2.80;;;6.70;59.80;;;;;;5105219;28;20274;-52
2021/04/27 04:01:58;;;;;;;4.27;2.90;;;6.70;60.70;;;;;;5098199;28;20453;-51
2021/04/27 04:04:24;;;;;;;3.35;2.80;;;6.90;60.60;;;;;;5109328;28;20714;-51
2021/04/27 04:06:50;;;;;;;5.43;3.10;;;6.60;60.60;;;;;;5108321;28;20183;-52
2021/04/27 04:09:15;;;;;;;3.77;3.47;;;6.80;61.20;;;;;;5101784;28;20192;-51
2021/04/27 04:11:41;;;;;;;5.80;3.07;;;6.50;61.00;;;;;;5105498;27;20465;-52
2021/04/27 04:14:07;;;;;;;4.63;2.97;;;6.70;61.30;;;;;;5103466;28;20189;-52
2021/04/27 04:16:32;;;;;;;3.43;2.83;;;6.50;61.30;;;;;;5104775;28;20211;-50
2021/04/27 04:18:58;;;;;;;3.50;3.20;;;6.60;61.60;;;;;;5103917;27;20212;-50
2021/04/27 04:21:24;;;;;;;4.57;3.40;;;6.70;61.60;;;;;;5104070;27;20221;-51
2021/04/27 04:23:51;;;;;;;4.22;2.90;;;6.70;61.90;;;;;;5103792;27;20971;-53
2021/04/27 04:26:17;;;;;;;3.95;3.05;;;6.80;62.00;;;;;;5105689;27;20274;-53
2021/04/27 04:28:43;;;;;;;3.50;2.87;;;6.90;62.00;;;;;;5105580;27;20278;-50
2021/04/27 04:31:08;;;;;;;3.93;3.20;;;6.90;62.40;;;;;;5106358;27;20489;-50
2021/04/27 04:33:34;;;;;;;3.87;3.00;;;6.80;62.20;;;;;;5096956;28;20759;-51
2021/04/27 04:36:00;;;;;;;3.60;3.30;;;6.70;63.70;;;;;;5105653;27;20378;-50
2021/04/27 04:38:26;;;;;;;5.77;2.97;;;6.60;64.70;;;;;;5099991;27;20494;-51
2021/04/27 04:40:52;;;;;;;3.47;3.17;;;6.70;65.00;;;;;;5098684;28;20947;-51
2021/04/27 04:43:19;;;;;;;3.90;3.50;;;6.60;63.60;;;;;;5097415;27;20206;-51
2021/04/27 04:45:45;;;;;;;3.33;3.03;;;6.50;64.50;;;;;;5116949;27;20421;-50
2021/04/27 04:48:11;;;;;;;3.38;3.05;;;6.70;63.80;;;;;;5105720;27;20192;-54
2021/04/27 04:50:37;;;;;;;4.13;3.73;;;6.80;62.90;;;;;;5101134;28;20550;-52
2021/04/27 04:53:03;;;;;;;7.15;3.10;;;7.00;62.30;;;;;;5116039;27;20277;-52
2021/04/27 04:55:29;;;;;;;4.85;3.55;;;7.20;60.00;;;;;;5101215;28;20198;-52
2021/04/27 04:57:55;;;;;;;9.30;3.10;;;6.90;60.70;;;;;;5105398;27;20182;-52
2021/04/27 05:00:22;;;;;;;5.30;3.70;;;7.30;59.90;;;;;;5100443;27;20986;-53
2021/04/27 05:02:48;;;;;;;6.57;3.90;;;7.40;58.90;;;;;;5097548;27;20239;-52
2021/04/27 05:05:14;;;;;;;4.67;2.83;;;7.50;58.60;;;;;;5109974;27;20605;-50
2021/04/27 05:07:45;;;;;;;4.18;2.95;;;7.00;58.50;;;;;;5118826;27;20558;-51
2021/04/27 05:10:17;;;;;;;3.33;3.03;;;7.20;58.90;;;;;;5103223;28;20179;-50
2021/04/27 05:12:42;;;;;;;3.25;2.95;;;7.40;58.90;;;;;;5100630;28;20696;-55
2021/04/27 05:15:09;;;;;;;4.30;2.70;;;7.30;58.80;;;;;;5102124;27;20184;-56
2021/04/27 05:17:36;;;;;;;4.60;3.30;;;7.40;58.30;;;;;;5101186;28;20225;-56
2021/04/27 05:20:02;;;;;;;3.92;3.00;;;7.80;58.30;;;;;;5098994;27;20286;-56
2021/04/27 05:22:29;;;;;;;4.97;3.00;;;7.80;57.90;;;;;;5104917;27;20234;-57
2021/04/27 05:24:55;;;;;;;4.47;3.38;;;7.70;58.00;;;;;;5102653;28;20541;-56
2021/04/27 05:27:21;;;;;;;3.60;3.30;;;7.90;57.50;;;;;;5104436;28;20183;-56
2021/04/27 05:29:47;;;;;;;6.43;3.60;;;8.00;57.60;;;;;;5110793;28;20210;-57
2021/04/27 05:32:13;;;;;;;6.33;3.63;;;8.10;57.60;;;;;;5109145;28;20229;-56
2021/04/27 05:34:38;;;;;;;4.83;3.90;;;8.10;57.90;;;;;;5106763;28;20184;-56
2021/04/27 05:37:04;;;;;;;9.73;3.47;;;8.00;57.00;;;;;;5101110;28;20485;-57
2021/04/27 05:39:31;;;;;;;3.80;3.47;;;8.30;57.10;;;;;;5096887;28;20654;-53
2021/04/27 05:41:57;;;;;;;5.18;4.68;;;8.10;56.20;;;;;;5099002;28;20869;-52
2021/04/27 05:44:22;;;;;;;3.50;3.07;;;9.80;69.50;;;;;;5099579;28;20184;-52
2021/04/27 05:46:48;;;;;;;2.77;2.17;;;11.90;80.60;;;;;;5102735;28;20433;-51
2021/04/27 05:49:14;;;;;;;2.80;2.60;;;13.20;71.70;;;;;;5106678;28;20632;-51
2021/04/27 05:51:40;;;;;;;3.33;3.03;;;14.30;59.20;;;;;;5097309;28;20431;-53
2021/04/27 05:54:06;;;;;;;4.90;3.80;;;14.30;49.10;;;;;;5099910;28;20187;-52
2021/04/27 05:56:33;;;;;;;4.50;4.10;;;14.20;51.40;;;;;;5104799;28;20310;-57
2021/04/27 05:58:59;;;;;;;4.55;3.55;;;14.50;49.10;;;;;;5105452;28;20233;-53
2021/04/27 06:01:24;;;;;;;5.47;3.60;;;14.60;45.70;;;;;;5106104;28;20183;-52
2021/04/27 06:03:51;;;;;;;4.60;3.17;;;13.90;44.60;;;;;;5104415;28;20195;-52
2021/04/27 06:06:17;;;;;;;6.47;4.22;;;12.90;45.00;;;;;;5107483;28;20572;-52
2021/04/27 06:08:43;;;;;;;6.32;3.90;;;12.50;46.20;;;;;;5108237;28;20186;-55
2021/04/27 06:11:09;;;;;;;5.83;3.37;;;11.50;46.80;;;;;;5100255;28;20252;-53
2021/04/27 06:13:35;;;;;;;4.20;3.80;;;11.10;48.20;;;;;;5099883;28;20474;-54
2021/04/27 06:16:01;;;;;;;4.33;3.70;;;10.40;49.10;;;;;;5108159;28;20202;-53
2021/04/27 06:18:27;;;;;;;7.97;4.38;;;10.10;49.60;;;;;;5108818;28;20464;-55
2021/04/27 06:20:53;;;;;;;6.13;5.00;;;10.30;50.50;;;;;;5107932;28;20639;-55
2021/04/27 06:23:18;;;;;;;4.80;3.70;;;10.00;51.60;;;;;;5100235;28;20783;-56
2021/04/27 06:25:44;;;;;;;5.20;4.70;;;10.10;51.00;;;;;;5108327;28;20556;-54
2021/04/27 06:28:11;;;;;;;10.53;6.73;;;10.40;51.50;;;;;;5105603;28;20182;-55
2021/04/27 06:30:37;;;;;;;7.20;4.10;;;10.00;51.90;;;;;;5106283;28;20468;-53
2021/04/27 06:33:03;;;;;;;5.72;4.85;;;10.20;52.00;;;;;;5102768;28;20199;-53
2021/04/27 06:35:29;;;;;;;6.53;4.20;;;10.20;51.70;;;;;;5105011;28;20173;-53
2021/04/27 06:37:55;;;;;;;4.40;4.00;;;10.50;51.20;;;;;;5100364;28;20204;-53
2021/04/27 06:40:21;;;;;;;4.80;4.03;;;10.70;50.70;;;;;;5104044;28;20181;-54
2021/04/27 06:42:47;;;;;;;4.57;4.18;;;11.20;50.40;;;;;;5106941;28;20474;-54
2021/04/27 06:45:14;;;;;;;6.00;4.60;;;11.50;49.90;;;;;;5103184;28;20656;-56
2021/04/27 06:47:40;;;;;;;7.15;4.60;;;11.20;49.60;;;;;;5105902;28;20812;-56
2021/04/27 06:50:07;;;;;;;4.50;4.10;;;11.10;49.20;;;;;;5107977;28;20223;-55
2021/04/27 06:52:32;;;;;;;10.10;4.15;;;11.40;49.50;;;;;;5106950;28;20214;-58
2021/04/27 06:54:58;;;;;;;7.13;5.07;;;11.90;48.70;;;;;;5106928;28;20237;-58
2021/04/27 06:57:25;;;;;;;5.83;4.13;;;12.30;47.70;;;;;;5106689;28;20210;-59
2021/04/27 06:59:51;;;;;;;7.47;5.13;;;12.80;47.80;;;;;;5108928;28;20449;-55
2021/04/27 07:02:16;;;;;;;5.97;4.73;;;13.80;46.10;;;;;;5110010;28;20208;-59
2021/04/27 07:04:42;;;;;;;7.60;4.73;;;14.10;44.80;;;;;;5110553;28;20218;-61
2021/04/27 07:07:08;;;;;;;4.33;3.93;;;15.30;43.60;;;;;;5111190;28;20184;-61
2021/04/27 07:09:35;;;;;;;5.33;4.80;;;16.40;41.70;;;;;;5111208;28;20669;-54
2021/04/27 07:12:01;;;;;;;4.90;4.25;;;16.10;41.50;;;;;;5110952;28;20535;-54
2021/04/27 07:14:27;;;;;;;7.40;4.70;;;17.60;39.60;;;;;;5110435;28;20179;-57
2021/04/27 07:16:52;;;;;;;5.70;4.10;;;18.50;37.60;;;;;;5111260;28;20208;-54
2021/04/27 07:19:19;;;;;;;6.07;4.60;;;19.30;36.30;;;;;;5111392;28;20955;-54
2021/04/27 07:21:44;;;;;;;5.20;4.70;;;19.30;36.00;;;;;;5110799;28;20975;-54
2021/04/27 07:24:11;;;;;;;5.10;4.60;;;19.60;35.50;;;;;;5109515;28;20440;-54
2021/04/27 07:26:41;;;;;;;7.13;5.07;;;20.10;35.30;;;;;;5104740;28;20266;-53
2021/04/27 07:29:08;;;;;;;7.73;5.03;;;20.70;34.00;;;;;;5109679;28;20437;-56
2021/04/27 07:31:34;;;;;;;5.27;4.77;;;21.00;33.10;;;;;;5106293;28;20459;-55
2021/04/27 07:34:00;;;;;;;4.80;4.40;;;19.50;34.10;;;;;;5109516;28;20449;-56
2021/04/27 07:36:26;;;;;;;5.17;4.67;;;20.60;34.50;;;;;;5108383;28;20453;-57
2021/04/27 07:38:52;;;;;;;16.70;5.63;;;21.90;33.10;;;;;;5109768;28;20203;-54
2021/04/27 07:41:17;;;;;;;7.50;5.17;;;22.50;32.00;;;;;;5108071;28;20535;-54
2021/04/27 07:43:43;;;;;;;5.17;4.57;;;22.60;32.20;;;;;;5110792;28;20592;-55
2021/04/27 07:46:09;;;;;;;6.90;5.60;;;21.90;32.70;;;;;;5119001;27;20205;-54
2021/04/27 07:48:38;;;;;;;11.20;5.27;;;22.80;31.50;;;;;;5108974;28;20249;-56
2021/04/27 07:51:04;;;;;;;6.87;5.60;;;23.10;30.90;;;;;;5101150;28;20188;-55
2021/04/27 07:53:29;;;;;;;7.60;5.27;;;22.70;31.30;;;;;;5111368;28;20496;-55
2021/04/27 07:55:55;;;;;;;5.73;5.17;;;22.90;31.10;;;;;;5108424;28;20475;-55
2021/04/27 07:58:21;;;;;;;9.73;5.90;;;23.30;30.70;;;;;;5110131;28;20819;-53
2021/04/27 08:00:47;;;;;;;7.63;5.77;;;24.10;30.00;;;;;;5099836;28;20183;-51
2021/04/27 08:03:12;;;;;;;8.40;5.03;;;23.50;29.60;;;;;;5105384;28;20249;-53
2021/04/27 08:05:38;;;;;;;6.20;5.40;;;22.00;31.50;;;;;;5110387;28;20184;-53
2021/04/27 08:08:04;;;;;;;6.17;5.57;;;22.30;31.10;;;;;;5105049;28;20189;-53
2021/04/27 08:10:30;;;;;;;5.50;4.97;;;22.70;31.20;;;;;;5108280;28;20188;-56
2021/04/27 08:12:56;;;;;;;6.20;5.50;;;21.90;31.00;;;;;;5101942;28;20951;-54
2021/04/27 08:15:28;;;;;;;14.43;6.73;;;23.10;31.20;;;;;;5104108;28;20456;-55
2021/04/27 08:17:56;;;;;;;6.20;5.27;;;23.50;30.30;;;;;;5106706;28;20991;-54
2021/04/27 08:20:22;;;;;;;6.63;5.97;;;24.20;29.90;;;;;;5121129;27;20533;-55
2021/04/27 08:22:49;;;;;;;6.00;5.50;;;23.30;29.50;;;;;;5108462;28;20468;-55
2021/04/27 08:25:18;;;;;;;5.83;5.20;;;22.60;30.80;;;;;;5106066;28;20533;-54
2021/04/27 08:27:44;;;;;;;5.97;5.38;;;22.80;30.40;;;;;;5110006;28;20426;-55
2021/04/27 08:30:11;;;;;;;5.97;5.43;;;23.10;30.40;;;;;;5105996;28;20646;-56
2021/04/27 08:32:37;;;;;;;6.43;5.63;;;23.60;30.30;;;;;;5108557;28;20548;-55
2021/04/27 08:35:04;;;;;;;5.97;5.30;;;24.80;29.50;;;;;;5105901;28;20539;-57
2021/04/27 08:37:31;;;;;;;6.43;5.80;;;24.90;29.50;;;;;;5104818;27;20208;-53
2021/04/27 08:39:56;;;;;;;5.60;5.10;;;25.70;28.60;;;;;;5103580;27;20434;-57
2021/04/27 08:42:23;;;;;;;6.23;5.63;;;25.60;28.60;;;;;;5101388;27;20561;-54
2021/04/27 08:44:49;;;;;;;7.00;6.40;;;26.10;27.80;;;;;;5105636;27;20435;-54
2021/04/27 08:47:14;;;;;;;6.57;5.87;;;24.80;28.40;;;;;;5104485;28;21078;-56
2021/04/27 08:49:40;;;;;;;8.03;6.70;;;24.40;29.10;;;;;;5104161;27;20232;-54
2021/04/27 08:52:06;;;;;;;9.57;6.20;;;23.50;28.70;;;;;;5108893;28;20282;-53
2021/04/27 08:54:35;;;;;;;6.90;6.30;;;23.00;29.80;;;;;;5108574;28;20539;-51
2021/04/27 08:57:01;;;;;;;7.10;6.43;;;23.50;29.90;;;;;;5102535;28;20620;-54
2021/04/27 08:59:27;;;;;;;7.70;7.00;;;22.70;30.30;;;;;;5108199;28;20432;-56
2021/04/27 09:01:53;;;;;;;7.03;6.33;;;22.90;30.60;;;;;;5107786;28;20463;-56
2021/04/27 09:04:57;;;;;;;7.43;6.73;;;23.00;30.20;;;;;;5106638;28;20244;-56
2021/04/27 09:07:27;;;;;;;6.90;6.30;;;23.40;30.50;;;;;;5029563;28;20719;-56
2021/04/27 09:09:58;;;;;;;6.50;5.90;;;24.20;29.80;;;;;;5029467;28;20973;-56
2021/04/27 09:12:28;;;;;;;10.63;6.13;;;23.90;30.70;;;;;;5082018;27;20453;-55
2021/04/27 09:14:55;;;;;;;9.20;7.50;;;24.40;30.00;;;;;;5105249;28;20472;-56
2021/04/27 09:17:26;;;;;;;8.00;7.30;;;24.60;29.50;;;;;;5108673;28;20895;-55
2021/04/27 09:19:53;;;;;;;7.87;7.17;;;24.00;29.40;;;;;;5112521;27;21004;-57
2021/04/27 09:22:31;;;;;;;8.27;6.83;;;24.00;29.50;;;;;;5105425;28;20457;-56
2021/04/27 09:25:08;;;;;;;8.33;6.60;;;24.50;29.50;;;;;;5106533;28;20428;-56
2021/04/27 09:27:34;;;;;;;8.20;7.40;;;25.20;29.00;;;;;;5108188;28;20479;-56
2021/04/27 09:30:19;;;;;;;8.23;6.43;;;25.50;28.80;;;;;;5102355;28;20875;-55
2021/04/27 09:33:10;;;;;;;7.43;6.73;;;24.30;29.50;;;;;;5102501;28;20212;-55
2021/04/27 09:35:50;;;;;;;8.07;6.87;;;22.10;31.00;;;;;;5105592;28;20437;-54
2021/04/27 09:38:27;;;;;;;7.50;6.30;;;22.00;31.80;;;;;;5107213;28;20887;-56
2021/04/27 09:41:00;;;;;;;6.83;6.23;;;22.10;32.00;;;;;;5098865;28;20432;-57
2021/04/27 09:43:42;;;;;;;7.93;7.20;;;21.70;31.80;;;;;;5107385;28;20973;-55
2021/04/27 09:46:13;;;;;;;7.80;7.00;;;21.60;34.20;;;;;;5103065;28;20813;-55
2021/04/27 09:48:42;;;;;;;7.77;7.03;;;22.00;32.60;;;;;;5106991;28;20489;-51
2021/04/27 09:51:13;;;;;;;8.17;7.40;;;21.10;32.60;;;;;;5107799;28;20582;-55
2021/04/27 09:53:46;;;;;;;7.47;6.50;;;21.40;33.10;;;;;;5103773;28;20510;-54
2021/04/27 09:56:30;;;;;;;8.33;7.53;;;22.30;32.60;;;;;;5105760;28;20461;-52
2021/04/27 09:59:21;;;;;;;7.80;6.70;;;22.10;32.50;;;;;;5108561;28;20934;-52
2021/04/27 10:02:01;;;;;;;7.90;7.10;;;23.10;31.50;;;;;;5105879;28;20457;-53
2021/04/27 10:04:28;;;;;;;9.03;8.13;;;22.90;31.20;;;;;;5098915;28;20467;-57
2021/04/27 10:06:56;;;;;;;7.00;6.27;;;22.40;31.90;;;;;;5100737;28;20561;-57
2021/04/27 10:09:29;;;;;;;7.30;6.60;;;21.90;32.40;;;;;;5096655;28;20822;-57
2021/04/27 10:11:56;;;;;;;8.10;7.30;;;21.60;32.60;;;;;;5104665;28;20536;-56
2021/04/27 10:14:22;;;;;;;8.00;7.20;;;21.10;33.20;;;;;;5106705;28;20494;-56
2021/04/27 10:16:48;;;;;;;10.63;7.20;;;20.80;33.90;;;;;;5102847;28;20203;-55
2021/04/27 10:19:14;;;;;;;8.57;7.68;;;20.00;34.90;;;;;;5100006;28;20455;-56
2021/04/27 10:21:40;;;;;;;8.43;7.40;;;20.20;35.00;;;;;;5105878;28;20203;-53
2021/04/27 10:24:18;;;;;;;9.43;7.03;;;19.90;35.80;;;;;;5105397;28;20237;-52
2021/04/27 10:26:46;;;;;;;10.27;8.32;;;19.70;35.70;;;;;;5120322;28;20432;-54
2021/04/27 10:29:17;;;;;;;9.32;8.35;;;20.00;35.90;;;;;;5102491;28;20192;-52
2021/04/27 10:31:44;;;;;;;10.57;8.25;;;20.10;35.40;;;;;;5100552;28;20230;-53
2021/04/27 10:34:15;;;;;;;11.00;9.45;;;20.00;35.40;;;;;;5103717;28;21353;-52
2021/04/27 10:36:50;;;;;;;9.48;7.25;;;20.10;35.30;;;;;;5108416;28;20206;-53
2021/04/27 10:39:35;;;;;;;9.25;7.40;;;20.20;35.30;;;;;;5106072;28;20186;-53
2021/04/27 10:42:23;;;;;;;10.13;7.60;;;20.10;35.20;;;;;;5103661;28;20245;-53
2021/04/27 10:44:59;;;;;;;8.77;7.97;;;20.70;34.50;;;;;;5104066;28;20176;-53
2021/04/27 10:47:27;;;;;;;8.47;7.67;;;21.90;33.70;;;;;;5099799;28;20968;-53
2021/04/27 10:49:57;;;;;;;9.60;8.70;;;22.30;32.60;;;;;;5110300;28;20433;-53
2021/04/27 10:52:35;;;;;;;8.20;7.40;;;21.50;32.80;;;;;;5110985;28;20983;-52
2021/04/27 10:55:25;;;;;;;9.53;8.53;;;21.20;33.30;;;;;;5110206;28;20502;-52
2021/04/27 10:57:51;;;;;;;8.80;7.90;;;21.30;33.40;;;;;;5109838;28;20463;-51
2021/04/27 11:00:40;;;;;;;8.45;7.65;;;20.80;34.40;;;;;;5109051;28;20547;-54
2021/04/27 11:03:27;;;;;;;10.73;8.65;;;20.60;34.80;;;;;;5104133;28;20202;-51
2021/04/27 11:06:19;;;;;;;9.15;8.23;;;20.90;35.30;;;;;;5117230;27;20549;-53
2021/04/27 11:08:49;;;;;;;11.93;8.50;;;21.10;34.90;;;;;;5103607;28;20243;-53
2021/04/27 11:11:20;;;;;;;10.80;9.70;;;21.30;33.90;;;;;;5108059;28;20255;-53
2021/04/27 11:13:47;;;;;;;9.93;8.93;;;21.30;34.00;;;;;;5110311;28;20425;-56
2021/04/27 11:16:22;;;;;;;9.55;8.25;;;21.30;33.50;;;;;;5108136;28;20514;-52
2021/04/27 11:18:48;;;;;;;9.30;8.40;;;21.50;33.20;;;;;;5103822;28;20176;-53
2021/04/27 11:21:14;;;;;;;10.87;8.77;;;21.20;33.40;;;;;;5105322;28;20187;-53
2021/04/27 11:23:41;;;;;;;9.87;8.17;;;21.30;33.30;;;;;;5106020;28;20202;-52
2021/04/27 11:26:31;;;;;;;10.25;8.20;;;21.40;33.40;;;;;;5107898;28;20187;-53
2021/04/27 11:29:12;;;;;;;9.57;8.70;;;21.40;33.60;;;;;;5106524;28;20233;-54
2021/04/27 11:32:10;;;;;;;8.73;7.53;;;21.50;32.80;;;;;;5106419;28;20464;-53
2021/04/27 11:35:09;;;;;;;9.23;8.33;;;21.90;32.40;;;;;;5104268;28;20805;-52
2021/04/27 11:37:45;;;;;;;10.97;8.37;;;22.20;30.90;;;;;;5102501;28;20461;-55
2021/04/27 11:40:19;;;;;;;9.40;8.50;;;22.20;31.30;;;;;;5121073;27;20482;-54
2021/04/27 11:42:50;;;;;;;10.90;8.17;;;22.70;31.00;;;;;;5106553;28;20460;-54
2021/04/27 11:45:17;;;;;;;9.53;8.53;;;23.10;30.70;;;;;;5109247;28;20527;-54
2021/04/27 11:47:45;;;;;;;9.10;8.20;;;22.80;30.90;;;;;;5103508;28;20503;-52
2021/04/27 11:50:11;;;;;;;7.73;7.03;;;22.80;30.60;;;;;;5108444;28;20175;-51
2021/04/27 11:53:03;;;;;;;7.70;7.00;;;22.70;30.70;;;;;;5109306;28;20505;-51
2021/04/27 11:55:58;;;;;;;10.30;7.83;;;21.90;31.20;;;;;;5104373;27;20448;-51
2021/04/27 11:58:32;;;;;;;8.68;7.78;;;21.20;31.60;;;;;;5098902;28;20516;-54
2021/04/27 12:00:58;;;;;;;9.38;8.32;;;21.10;32.60;;;;;;5103986;28;20275;-54
2021/04/27 12:03:42;;;;;;;8.40;7.57;;;21.30;32.90;;;;;;5100801;28;20203;-54
2021/04/27 12:06:09;;;;;;;8.43;7.38;;;20.70;32.20;;;;;;5107460;28;20182;-52
2021/04/27 12:08:40;;;;;;;8.38;7.68;;;20.50;32.50;;;;;;5105992;28;20172;-55
2021/04/27 12:11:14;;;;;;;9.50;7.93;;;20.30;32.80;;;;;;5104578;28;20196;-54
2021/04/27 12:14:22;;;;;;;8.05;7.25;;;20.30;32.90;;;;;;5105138;28;20653;-54
2021/04/27 12:16:49;;;;;;;9.63;7.00;;;20.20;32.70;;;;;;5103431;28;20337;-55
2021/04/27 12:19:18;;;;;;;8.25;7.45;;;20.10;32.50;;;;;;5107223;28;20230;-53
2021/04/27 12:22:15;;;;;;;9.60;7.30;;;20.00;32.10;;;;;;5109277;28;20223;-53
2021/04/27 12:24:42;;;;;;;10.93;7.95;;;19.50;32.40;;;;;;5103803;28;20233;-53
2021/04/27 12:27:16;;;;;;;8.63;7.70;;;19.50;33.00;;;;;;5108042;28;20654;-54
2021/04/27 12:30:01;;;;;;;8.32;7.25;;;19.80;32.90;;;;;;5100985;28;20290;-52
2021/04/27 12:32:29;;;;;;;8.45;7.00;;;19.90;32.80;;;;;;5101967;28;20574;-52
2021/04/27 12:35:06;;;;;;;7.68;6.88;;;20.00;33.10;;;;;;5107087;28;20207;-52
2021/04/27 12:37:34;;;;;;;8.05;7.25;;;19.90;32.60;;;;;;5101866;28;20269;-52
2021/04/27 12:40:01;;;;;;;8.25;7.45;;;19.90;33.20;;;;;;5107795;28;20191;-52
2021/04/27 12:42:30;;;;;;;7.57;6.85;;;20.00;33.40;;;;;;5105897;28;20262;-53
2021/04/27 12:45:04;;;;;;;7.55;6.45;;;19.70;32.50;;;;;;5104822;28;20547;-53
2021/04/27 12:47:33;;;;;;;8.13;7.32;;;19.70;33.00;;;;;;5100896;28;20174;-52
2021/04/27 12:50:11;;;;;;;8.50;7.28;;;19.60;33.10;;;;;;5107761;28;20201;-52
2021/04/27 12:52:49;;;;;;;8.05;6.53;;;19.70;33.10;;;;;;5098190;28;20295;-52
2021/04/27 12:55:22;;;;;;;8.65;7.15;;;19.80;32.60;;;;;;5108017;28;20223;-52
2021/04/27 12:57:48;;;;;;;8.10;7.30;;;19.90;33.10;;;;;;5101810;28;20204;-54
2021/04/27 13:00:18;;;;;;;8.00;6.90;;;20.00;32.20;;;;;;5104191;28;20205;-54